Terminal Aerodrome Forecast
Issued by NWS Amarillo, TX

Home | Current Version | Previous Version | Text Only | Print | Product List | Glossary On
Versions: 1 2 3 4 5 6 7 8 9 10 11 12 13 14 15 16 17 18 19 20 21 22 23 24 25 26 27 28 29 30 31 32
000
FTUS44 KAMA 281600 AAA
TAFGUY
TAF AMD
KGUY 281616Z 2816/0112 17012KT P6SM SCT012 BKN030
     FM281800 17012KT P6SM OVC010
     FM010200 16007KT 2SM -FZDZ OVC007=

USA.gov is the U.S. government's official web portal to all federal, state and local government web resources and services.